createdAt,value
2018-06-09T00:00:08.916Z,0.00
2018-06-09T00:01:09.100Z,0.00
2018-06-09T00:02:09.280Z,0.00
2018-06-09T00:03:09.470Z,0.00
2018-06-09T00:04:09.659Z,0.00
2018-06-09T00:05:09.825Z,0.00
2018-06-09T00:06:10.017Z,0.00
2018-06-09T00:07:10.198Z,0.00
2018-06-09T00:08:10.382Z,0.00
2018-06-09T00:09:10.573Z,0.00
2018-06-09T00:10:10.756Z,0.00
2018-06-09T00:11:10.929Z,0.00
2018-06-09T00:12:11.117Z,0.00
2018-06-09T00:13:11.295Z,0.00
2018-06-09T00:14:11.496Z,0.00
2018-06-09T00:15:11.674Z,0.00
2018-06-09T00:16:11.857Z,0.00
2018-06-09T00:17:12.042Z,0.00
2018-06-09T00:18:12.223Z,0.00
2018-06-09T00:19:12.404Z,0.00
2018-06-09T00:20:12.592Z,0.00
2018-06-09T00:21:12.776Z,0.00
2018-06-09T00:22:12.952Z,0.00
2018-06-09T00:23:13.137Z,0.00
2018-06-09T00:24:13.327Z,0.00
2018-06-09T00:25:13.505Z,0.00
2018-06-09T00:26:13.690Z,0.00
2018-06-09T00:27:13.872Z,0.00
2018-06-09T00:28:14.059Z,0.00
2018-06-09T00:29:14.228Z,0.00
2018-06-09T00:30:14.416Z,0.00
2018-06-09T00:31:14.599Z,0.00
2018-06-09T00:32:14.783Z,0.00
2018-06-09T00:33:14.983Z,0.00
2018-06-09T00:34:15.158Z,0.00
2018-06-09T00:35:15.336Z,0.00
2018-06-09T00:36:15.510Z,0.00
2018-06-09T00:37:15.693Z,0.00
2018-06-09T00:38:15.880Z,0.00
2018-06-09T00:39:16.056Z,0.00
2018-06-09T00:40:16.239Z,0.00
2018-06-09T00:41:16.421Z,0.00
2018-06-09T00:42:16.607Z,0.00
2018-06-09T00:43:16.801Z,0.00
2018-06-09T00:45:17.158Z,0.00
2018-06-09T00:46:17.346Z,0.00
2018-06-09T00:47:17.527Z,0.00
2018-06-09T00:48:17.709Z,0.00
2018-06-09T00:49:17.903Z,0.00
2018-06-09T00:50:18.088Z,0.00
2018-06-09T00:51:18.263Z,0.00
2018-06-09T00:52:18.443Z,0.00
2018-06-09T00:53:18.630Z,0.00
2018-06-09T00:54:18.808Z,0.00
2018-06-09T00:55:18.992Z,0.00
2018-06-09T00:56:19.179Z,0.00
2018-06-09T00:57:19.360Z,0.00
2018-06-09T00:58:19.551Z,0.00
2018-06-09T00:59:19.733Z,0.00
2018-06-09T01:00:19.917Z,0.00
2018-06-09T01:01:20.097Z,0.00
2018-06-09T01:02:20.279Z,0.00
2018-06-09T01:03:20.471Z,0.00
2018-06-09T01:04:20.650Z,0.00
2018-06-09T01:05:20.836Z,0.00
2018-06-09T01:06:21.020Z,0.00
2018-06-09T01:07:21.199Z,0.00
2018-06-09T01:08:21.382Z,0.00
2018-06-09T01:09:21.561Z,0.00
2018-06-09T01:10:21.753Z,0.00
2018-06-09T01:11:21.931Z,0.00
2018-06-09T01:12:22.111Z,0.00
2018-06-09T01:13:22.296Z,0.00
2018-06-09T01:14:22.474Z,0.00
2018-06-09T01:15:22.681Z,0.00
2018-06-09T01:16:22.843Z,0.00
2018-06-09T01:17:23.029Z,0.00
2018-06-09T01:18:23.223Z,0.00
2018-06-09T01:19:23.388Z,0.00
2018-06-09T01:20:23.571Z,0.00
2018-06-09T01:21:23.758Z,0.00
2018-06-09T01:22:23.939Z,0.00
2018-06-09T01:23:24.133Z,0.00
2018-06-09T01:24:24.307Z,0.00
2018-06-09T01:25:24.492Z,0.00
2018-06-09T01:26:24.672Z,0.00
2018-06-09T01:27:24.851Z,0.00
2018-06-09T01:28:25.032Z,0.00
2018-06-09T01:29:25.219Z,0.00
2018-06-09T01:30:25.415Z,0.00
2018-06-09T01:31:25.589Z,0.00
2018-06-09T01:32:25.783Z,0.00
2018-06-09T01:33:25.955Z,0.00
2018-06-09T01:34:26.143Z,0.00
2018-06-09T01:35:26.330Z,0.00
2018-06-09T01:36:26.509Z,0.00
2018-06-09T01:37:26.683Z,0.00
2018-06-09T01:38:26.867Z,0.00
2018-06-09T01:39:27.289Z,0.00
2018-06-09T01:40:27.234Z,0.00
2018-06-09T01:41:27.423Z,0.00
2018-06-09T01:42:27.604Z,0.00
2018-06-09T01:43:27.792Z,0.00
2018-06-09T01:44:27.971Z,0.00
2018-06-09T01:45:28.153Z,0.00
2018-06-09T01:46:28.574Z,0.00
2018-06-09T01:47:28.533Z,0.00
2018-06-09T01:48:28.697Z,0.00
2018-06-09T01:49:28.885Z,0.00
2018-06-09T01:50:29.066Z,0.00
2018-06-09T01:51:29.250Z,0.00
2018-06-09T01:52:29.435Z,0.00
2018-06-09T01:53:29.615Z,0.00
2018-06-09T01:54:29.807Z,0.00
2018-06-09T01:55:29.985Z,0.00
2018-06-09T01:56:30.168Z,0.00
2018-06-09T01:57:30.343Z,0.00
2018-06-09T01:58:30.536Z,0.00
2018-06-09T01:59:30.720Z,0.00
2018-06-09T02:00:30.907Z,0.00
2018-06-09T02:01:31.089Z,0.00
2018-06-09T02:02:31.264Z,0.00
2018-06-09T02:03:31.444Z,0.00
2018-06-09T02:04:31.626Z,0.00
2018-06-09T02:05:31.797Z,0.00
2018-06-09T02:06:31.982Z,0.00
2018-06-09T02:07:32.156Z,0.00
2018-06-09T02:08:32.360Z,0.00
2018-06-09T02:09:32.532Z,0.00
2018-06-09T02:10:32.712Z,0.00
2018-06-09T02:11:32.892Z,0.00
2018-06-09T02:12:33.067Z,0.00
2018-06-09T02:14:33.430Z,0.00
2018-06-09T02:15:33.596Z,0.00
2018-06-09T02:16:33.785Z,0.00
2018-06-09T02:17:33.972Z,0.00
2018-06-09T02:18:34.162Z,0.00
2018-06-09T02:19:34.334Z,0.00
2018-06-09T02:20:34.864Z,0.00
2018-06-09T02:21:34.697Z,0.00
2018-06-09T02:22:34.880Z,0.00
2018-06-09T02:23:35.085Z,0.00
2018-06-09T02:24:35.246Z,0.00
2018-06-09T02:25:35.444Z,0.00
2018-06-09T02:26:35.613Z,0.00
2018-06-09T02:27:35.793Z,0.00
2018-06-09T02:28:35.972Z,0.00
2018-06-09T02:29:36.155Z,0.00
2018-06-09T02:30:36.329Z,0.00
2018-06-09T02:31:36.505Z,0.00
2018-06-09T02:32:36.707Z,0.00
2018-06-09T02:33:36.884Z,0.00
2018-06-09T02:34:37.063Z,0.00
2018-06-09T02:35:37.244Z,0.00
2018-06-09T02:36:37.431Z,0.00
2018-06-09T02:37:37.618Z,0.00
2018-06-09T02:38:37.797Z,0.00
2018-06-09T02:39:37.985Z,0.00
2018-06-09T02:40:38.159Z,0.00
2018-06-09T02:41:38.343Z,0.00
2018-06-09T02:42:38.523Z,0.00
2018-06-09T02:43:38.706Z,0.00
2018-06-09T02:44:38.893Z,0.00
2018-06-09T02:45:39.069Z,0.00
2018-06-09T02:46:39.258Z,0.00
2018-06-09T02:47:39.434Z,0.00
2018-06-09T02:48:39.616Z,0.00
2018-06-09T02:49:39.795Z,0.00
2018-06-09T02:50:39.982Z,0.00
2018-06-09T02:51:40.157Z,0.00
2018-06-09T02:52:40.341Z,0.00
2018-06-09T02:53:40.529Z,0.00
2018-06-09T02:54:40.750Z,0.00
2018-06-09T02:55:40.898Z,0.00
2018-06-09T02:56:41.085Z,0.00
2018-06-09T02:57:41.260Z,0.00
2018-06-09T02:58:41.449Z,0.00
2018-06-09T02:59:41.622Z,0.00
2018-06-09T03:00:41.808Z,5.63
2018-06-09T03:01:41.987Z,5.63
2018-06-09T03:02:42.175Z,5.63
2018-06-09T03:03:42.353Z,5.63
2018-06-09T03:04:42.551Z,11.25
2018-06-09T03:05:42.724Z,11.25
2018-06-09T03:06:42.898Z,11.25
2018-06-09T03:07:43.085Z,11.25
2018-06-09T03:08:43.262Z,11.25
2018-06-09T03:09:43.445Z,16.88
2018-06-09T03:10:43.630Z,16.88
2018-06-09T03:11:43.811Z,16.88
2018-06-09T03:12:43.998Z,16.88
2018-06-09T03:13:44.185Z,16.88
2018-06-09T03:14:44.366Z,16.88
2018-06-09T03:15:44.541Z,22.50
2018-06-09T03:16:44.729Z,22.50
2018-06-09T03:17:44.905Z,22.50
2018-06-09T03:18:45.326Z,28.13
2018-06-09T03:19:45.273Z,28.13
2018-06-09T03:20:45.459Z,33.75
2018-06-09T03:21:45.650Z,33.75
2018-06-09T03:22:45.812Z,39.38
2018-06-09T03:23:45.996Z,45.00
2018-06-09T03:24:46.182Z,45.00
2018-06-09T03:25:46.366Z,50.63
2018-06-09T03:26:46.542Z,56.25
2018-06-09T03:27:46.726Z,56.25
2018-06-09T03:28:46.918Z,61.88
2018-06-09T03:29:47.089Z,67.50
2018-06-09T03:30:47.267Z,67.50
2018-06-09T03:31:47.447Z,67.50
2018-06-09T03:32:47.636Z,73.13
2018-06-09T03:33:47.815Z,78.75
2018-06-09T03:34:48.024Z,84.38
2018-06-09T03:35:48.202Z,84.38
2018-06-09T03:36:48.384Z,90.00
2018-06-09T03:37:48.574Z,95.63
2018-06-09T03:38:48.748Z,101.25
2018-06-09T03:39:48.934Z,106.88
2018-06-09T03:40:49.108Z,112.50
2018-06-09T03:41:49.305Z,118.13
2018-06-09T03:42:49.505Z,123.75
2018-06-09T03:43:49.685Z,129.38
2018-06-09T03:44:49.854Z,135.00
2018-06-09T03:45:50.041Z,135.00
2018-06-09T03:46:50.222Z,140.63
2018-06-09T03:47:50.400Z,146.25
2018-06-09T03:48:50.632Z,151.88
2018-06-09T03:49:50.758Z,157.50
2018-06-09T03:50:50.954Z,163.13
2018-06-09T03:51:51.139Z,168.75
2018-06-09T03:53:51.500Z,185.63
2018-06-09T03:54:51.683Z,191.25
2018-06-09T03:55:51.870Z,191.25
2018-06-09T03:56:52.056Z,196.88
2018-06-09T03:57:52.236Z,202.50
2018-06-09T03:58:52.425Z,208.13
2018-06-09T03:59:52.609Z,213.75
2018-06-09T04:00:52.793Z,213.75
2018-06-09T04:01:52.971Z,219.38
2018-06-09T04:02:53.157Z,225.00
2018-06-09T04:03:53.333Z,225.00
2018-06-09T04:04:53.523Z,225.00
2018-06-09T04:05:53.701Z,225.00
2018-06-09T04:06:53.887Z,225.00
2018-06-09T04:07:54.074Z,219.38
2018-06-09T04:08:54.271Z,219.38
2018-06-09T04:09:54.451Z,219.38
2018-06-09T04:10:54.627Z,230.63
2018-06-09T04:11:54.816Z,258.75
2018-06-09T04:12:54.994Z,303.75
2018-06-09T04:13:55.172Z,320.63
2018-06-09T04:14:55.352Z,365.63
2018-06-09T04:15:55.538Z,388.13
2018-06-09T04:16:55.721Z,472.50
2018-06-09T04:17:55.903Z,511.88
2018-06-09T04:18:56.088Z,421.88
2018-06-09T04:19:56.270Z,388.13
2018-06-09T04:20:56.449Z,348.75
2018-06-09T04:21:56.639Z,309.38
2018-06-09T04:22:56.822Z,281.25
2018-06-09T04:23:57.243Z,230.63
2018-06-09T04:24:57.184Z,225.00
2018-06-09T04:25:57.368Z,219.38
2018-06-09T04:26:57.555Z,225.00
2018-06-09T04:27:57.736Z,230.63
2018-06-09T04:28:57.933Z,241.88
2018-06-09T04:29:58.109Z,253.13
2018-06-09T04:30:58.293Z,275.63
2018-06-09T04:31:58.476Z,331.88
2018-06-09T04:32:58.670Z,433.13
2018-06-09T04:33:58.912Z,466.88
2018-06-09T04:34:59.024Z,601.88
2018-06-09T04:35:59.203Z,787.50
2018-06-09T04:36:59.384Z,894.38
2018-06-09T04:37:59.564Z,1085.63
2018-06-09T04:38:59.751Z,1158.75
2018-06-09T04:39:59.971Z,1136.25
2018-06-09T04:41:00.120Z,1181.25
2018-06-09T04:42:00.299Z,967.50
2018-06-09T04:43:00.492Z,855.00
2018-06-09T04:44:00.675Z,990.00
2018-06-09T04:45:00.855Z,1136.25
2018-06-09T04:46:01.098Z,1012.50
2018-06-09T04:47:01.221Z,1091.25
2018-06-09T04:48:01.410Z,894.38
2018-06-09T04:49:01.588Z,556.88
2018-06-09T04:50:01.777Z,523.13
2018-06-09T04:51:01.960Z,590.63
2018-06-09T04:52:02.147Z,573.75
2018-06-09T04:53:02.335Z,444.38
2018-06-09T04:54:02.515Z,348.75
2018-06-09T04:55:02.714Z,286.88
2018-06-09T04:56:02.898Z,253.13
2018-06-09T04:57:03.083Z,264.38
2018-06-09T04:58:03.268Z,298.13
2018-06-09T04:59:03.446Z,421.88
2018-06-09T05:00:03.627Z,573.75
2018-06-09T05:01:03.867Z,618.75
2018-06-09T05:02:04.003Z,635.63
2018-06-09T05:03:04.192Z,573.75
2018-06-09T05:04:04.380Z,388.13
2018-06-09T05:05:04.559Z,331.88
2018-06-09T05:06:04.748Z,365.63
2018-06-09T05:07:04.932Z,421.88
2018-06-09T05:08:05.119Z,556.88
2018-06-09T05:09:05.305Z,871.88
2018-06-09T05:10:05.488Z,1001.25
2018-06-09T05:11:05.681Z,1175.63
2018-06-09T05:12:05.863Z,1665.00
2018-06-09T05:13:06.045Z,1918.13
2018-06-09T05:14:06.226Z,2317.50
2018-06-09T05:15:06.409Z,2390.63
2018-06-09T05:16:06.602Z,2216.25
2018-06-09T05:17:06.792Z,2030.63
2018-06-09T05:18:07.210Z,1715.63
2018-06-09T05:19:07.154Z,1018.13
2018-06-09T05:20:07.344Z,545.63
2018-06-09T05:21:07.564Z,483.75
2018-06-09T05:22:07.711Z,478.13
2018-06-09T05:23:07.898Z,489.38
2018-06-09T05:24:08.082Z,511.88
2018-06-09T05:25:08.291Z,551.25
2018-06-09T05:26:08.449Z,579.38
2018-06-09T05:27:08.640Z,618.75
2018-06-09T05:28:08.940Z,725.63
2018-06-09T05:29:09.011Z,736.88
2018-06-09T05:30:09.206Z,2255.63
2018-06-09T05:31:09.389Z,1445.63
2018-06-09T05:32:09.591Z,686.25
2018-06-09T05:33:09.753Z,624.38
2018-06-09T05:34:10.105Z,579.38
2018-06-09T05:35:10.124Z,568.13
2018-06-09T05:36:10.317Z,568.13
2018-06-09T05:37:10.495Z,585.00
2018-06-09T05:38:10.692Z,579.38
2018-06-09T05:39:10.879Z,568.13
2018-06-09T05:40:11.059Z,556.88
2018-06-09T05:41:11.248Z,562.50
2018-06-09T05:42:11.456Z,556.88
2018-06-09T05:43:11.614Z,534.38
2018-06-09T05:44:11.794Z,551.25
2018-06-09T05:45:11.984Z,579.38
2018-06-09T05:46:12.173Z,596.25
2018-06-09T05:47:12.357Z,658.13
2018-06-09T05:48:12.542Z,652.50
2018-06-09T05:49:12.729Z,630.00
2018-06-09T05:50:12.917Z,652.50
2018-06-09T05:51:13.109Z,658.13
2018-06-09T05:52:13.295Z,697.50
2018-06-09T05:53:13.478Z,1108.13
2018-06-09T05:54:13.668Z,1670.63
2018-06-09T05:55:13.852Z,1091.25
2018-06-09T05:56:14.045Z,945.00
2018-06-09T05:57:14.227Z,838.13
2018-06-09T05:58:14.413Z,1096.88
2018-06-09T05:59:14.601Z,1226.25
2018-06-09T06:00:14.786Z,725.63
2018-06-09T06:01:14.968Z,736.88
2018-06-09T06:02:15.164Z,922.50
2018-06-09T06:03:15.349Z,2041.88
2018-06-09T06:04:15.533Z,1231.88
2018-06-09T06:05:15.715Z,1912.50
2018-06-09T06:06:15.904Z,2013.75
2018-06-09T06:07:16.092Z,2975.63
2018-06-09T06:08:16.307Z,3071.25
2018-06-09T06:09:16.496Z,1985.63
2018-06-09T06:10:16.679Z,2581.88
2018-06-09T06:11:16.864Z,1299.38
2018-06-09T06:12:17.053Z,2266.88
2018-06-09T06:13:17.246Z,2666.25
2018-06-09T06:14:17.431Z,3054.38
2018-06-09T06:15:17.609Z,3099.38
2018-06-09T06:16:17.797Z,3060.00
2018-06-09T06:17:17.986Z,3026.25
2018-06-09T06:18:18.184Z,3026.25
2018-06-09T06:19:18.363Z,3088.13
2018-06-09T06:20:18.541Z,3110.63
2018-06-09T06:21:18.731Z,3110.63
2018-06-09T06:22:18.928Z,3121.88
2018-06-09T06:23:19.111Z,3110.63
2018-06-09T06:24:19.303Z,3138.75
2018-06-09T06:25:19.487Z,3144.38
2018-06-09T06:26:19.676Z,3150.00
2018-06-09T06:27:19.859Z,3150.00
2018-06-09T06:28:20.046Z,3155.63
2018-06-09T06:29:20.238Z,3144.38
2018-06-09T06:30:20.435Z,3060.00
2018-06-09T06:31:20.860Z,2919.38
2018-06-09T06:32:20.809Z,2840.63
2018-06-09T06:33:20.990Z,2801.25
2018-06-09T06:34:21.181Z,2778.75
2018-06-09T06:35:21.375Z,2784.38
2018-06-09T06:36:21.555Z,2750.63
2018-06-09T06:37:21.748Z,2677.50
2018-06-09T06:38:21.939Z,2728.13
2018-06-09T06:39:22.124Z,2621.25
2018-06-09T06:40:22.320Z,2655.00
2018-06-09T06:41:22.515Z,2610.00
2018-06-09T06:42:22.700Z,2722.50
2018-06-09T06:43:22.892Z,2632.50
2018-06-09T06:44:23.085Z,2767.50
2018-06-09T06:45:23.280Z,2745.00
2018-06-09T06:46:23.464Z,2655.00
2018-06-09T06:47:23.652Z,2688.75
2018-06-09T06:48:23.843Z,2643.75
2018-06-09T06:49:24.032Z,2446.88
2018-06-09T06:50:24.295Z,2632.50
2018-06-09T06:51:24.418Z,2565.00
2018-06-09T06:52:24.610Z,2694.38
2018-06-09T06:53:24.798Z,2536.88
2018-06-09T06:54:24.989Z,2385.00
2018-06-09T06:55:25.184Z,2508.75
2018-06-09T06:56:25.382Z,2193.75
2018-06-09T06:57:25.563Z,2266.88
2018-06-09T06:58:25.749Z,2373.75
2018-06-09T06:59:25.951Z,2283.75
2018-06-09T07:00:26.167Z,2238.75
2018-06-09T07:01:26.327Z,2396.25
2018-06-09T07:02:26.514Z,1968.75
2018-06-09T07:03:26.709Z,2351.25
2018-06-09T07:04:26.897Z,2283.75
2018-06-09T07:05:27.092Z,2137.50
2018-06-09T07:07:27.471Z,2137.50
2018-06-09T07:08:27.666Z,2480.63
2018-06-09T07:09:27.860Z,2469.38
2018-06-09T07:10:28.048Z,2441.25
2018-06-09T07:11:28.283Z,2486.25
2018-06-09T07:12:28.470Z,2480.63
2018-06-09T07:13:28.660Z,2480.63
2018-06-09T07:14:28.845Z,2418.75
2018-06-09T07:15:29.041Z,2373.75
2018-06-09T07:16:29.228Z,2435.63
2018-06-09T07:17:29.417Z,2458.13
2018-06-09T07:18:29.609Z,2452.50
2018-06-09T07:19:29.799Z,2458.13
2018-06-09T07:20:29.984Z,2283.75
2018-06-09T07:21:30.171Z,2351.25
2018-06-09T07:22:30.361Z,2424.38
2018-06-09T07:23:30.565Z,2373.75
2018-06-09T07:24:30.729Z,2334.38
2018-06-09T07:25:30.917Z,2328.75
2018-06-09T07:26:31.115Z,2272.50
2018-06-09T07:27:31.302Z,1957.50
2018-06-09T07:28:31.499Z,1406.25
2018-06-09T07:29:31.704Z,1158.75
2018-06-09T07:30:31.953Z,1051.88
2018-06-09T07:31:32.077Z,956.25
2018-06-09T07:32:32.274Z,905.63
2018-06-09T07:33:32.441Z,939.38
2018-06-09T07:34:32.631Z,916.88
2018-06-09T07:35:32.816Z,871.88
2018-06-09T07:36:33.005Z,793.13
2018-06-09T07:37:33.213Z,753.75
2018-06-09T07:38:33.400Z,663.75
2018-06-09T07:39:33.602Z,641.25
2018-06-09T07:40:33.762Z,641.25
2018-06-09T07:41:33.953Z,658.13
2018-06-09T07:42:34.142Z,691.88
2018-06-09T07:43:34.332Z,753.75
2018-06-09T07:44:34.520Z,849.38
2018-06-09T07:45:34.717Z,950.63
2018-06-09T07:46:34.907Z,1350.00
2018-06-09T07:47:35.093Z,1299.38
2018-06-09T07:48:35.281Z,1164.38
2018-06-09T07:49:35.471Z,1372.50
2018-06-09T07:50:35.659Z,1355.63
2018-06-09T07:51:35.847Z,1546.88
2018-06-09T07:52:36.037Z,1603.13
2018-06-09T07:53:36.228Z,1631.25
2018-06-09T07:54:36.419Z,2115.00
2018-06-09T07:55:36.606Z,2070.00
2018-06-09T07:56:36.797Z,2025.00
2018-06-09T07:57:36.982Z,2002.50
2018-06-09T07:58:37.189Z,1991.25
2018-06-09T07:59:37.454Z,1974.38
2018-06-09T08:00:37.563Z,1951.88
2018-06-09T08:01:37.758Z,1940.63
2018-06-09T08:02:37.924Z,1918.13
2018-06-09T08:03:38.116Z,1906.88
2018-06-09T08:04:38.313Z,1873.13
2018-06-09T08:05:38.507Z,1856.25
2018-06-09T08:06:38.678Z,1839.38
2018-06-09T08:07:38.859Z,1811.25
2018-06-09T08:08:39.051Z,1771.88
2018-06-09T08:09:39.228Z,1743.75
2018-06-09T08:10:39.428Z,1726.88
2018-06-09T08:11:39.581Z,1698.75
2018-06-09T08:12:39.766Z,1665.00
2018-06-09T08:13:39.959Z,1681.88
2018-06-09T08:14:40.142Z,1665.00
2018-06-09T08:15:40.330Z,1822.50
2018-06-09T08:16:40.789Z,1805.63
2018-06-09T08:17:40.710Z,1783.13
2018-06-09T08:18:40.910Z,1743.75
2018-06-09T08:19:41.088Z,1721.25
2018-06-09T08:20:41.281Z,1670.63
2018-06-09T08:21:41.475Z,1636.88
2018-06-09T08:22:41.663Z,1608.75
2018-06-09T08:23:41.853Z,1563.75
2018-06-09T08:24:42.051Z,1524.38
2018-06-09T08:25:42.250Z,1513.13
2018-06-09T08:26:42.441Z,1496.25
2018-06-09T08:27:42.636Z,1468.13
2018-06-09T08:28:42.830Z,1456.88
2018-06-09T08:29:43.018Z,1462.50
2018-06-09T08:31:43.395Z,1451.25
2018-06-09T08:32:43.591Z,1434.38
2018-06-09T08:33:43.789Z,1411.88
2018-06-09T08:34:43.972Z,1389.38
2018-06-09T08:35:44.159Z,1355.63
2018-06-09T08:36:44.352Z,1293.75
2018-06-09T08:37:44.544Z,1293.75
2018-06-09T08:38:44.729Z,1237.50
2018-06-09T08:39:44.913Z,1226.25
2018-06-09T08:40:45.106Z,1226.25
2018-06-09T08:41:45.310Z,1186.88
2018-06-09T08:42:45.492Z,1192.50
2018-06-09T08:43:45.738Z,1158.75
2018-06-09T08:44:45.907Z,1141.88
2018-06-09T08:45:46.095Z,1119.38
2018-06-09T08:46:46.289Z,1102.50
2018-06-09T08:47:46.484Z,1085.63
2018-06-09T08:48:46.683Z,1057.50
2018-06-09T08:49:46.869Z,1040.63
2018-06-09T08:50:47.074Z,1018.13
2018-06-09T08:51:47.254Z,990.00
2018-06-09T08:52:47.452Z,967.50
2018-06-09T08:53:47.646Z,928.13
2018-06-09T08:54:47.834Z,900.00
2018-06-09T08:55:48.034Z,905.63
2018-06-09T08:56:48.238Z,916.88
2018-06-09T08:57:48.454Z,928.13
2018-06-09T08:58:48.633Z,939.38
2018-06-09T08:59:48.810Z,945.00
2018-06-09T09:00:49.003Z,945.00
2018-06-09T09:01:49.197Z,967.50
2018-06-09T09:02:49.398Z,961.88
2018-06-09T09:03:49.585Z,1023.75
2018-06-09T09:04:49.784Z,1057.50
2018-06-09T09:05:49.974Z,1080.00
2018-06-09T09:06:50.161Z,1068.75
2018-06-09T09:07:50.353Z,1074.38
2018-06-09T09:08:50.539Z,1068.75
2018-06-09T09:09:50.732Z,1074.38
2018-06-09T09:10:50.919Z,1074.38
2018-06-09T09:11:51.111Z,1085.63
2018-06-09T09:12:51.304Z,1091.25
2018-06-09T09:13:51.495Z,1080.00
2018-06-09T09:14:51.699Z,1108.13
2018-06-09T09:15:51.884Z,1130.63
2018-06-09T09:16:52.070Z,1130.63
2018-06-09T09:17:52.251Z,1136.25
2018-06-09T09:18:52.447Z,1153.13
2018-06-09T09:19:52.678Z,1164.38
2018-06-09T09:20:53.119Z,1153.13
2018-06-09T09:21:53.059Z,1158.75
2018-06-09T09:22:53.263Z,1153.13
2018-06-09T09:23:53.443Z,1147.50
2018-06-09T09:24:53.641Z,1130.63
2018-06-09T09:25:53.835Z,1125.00
2018-06-09T09:26:54.028Z,1125.00
2018-06-09T09:27:54.230Z,1130.63
2018-06-09T09:28:54.412Z,1125.00
2018-06-09T09:29:54.610Z,1141.88
2018-06-09T09:30:54.793Z,1136.25
2018-06-09T09:31:54.992Z,1141.88
2018-06-09T09:32:55.186Z,1130.63
2018-06-09T09:33:55.380Z,1125.00
2018-06-09T09:34:55.570Z,1125.00
2018-06-09T09:35:55.788Z,1113.75
2018-06-09T09:36:55.978Z,1063.13
2018-06-09T09:37:56.175Z,933.75
2018-06-09T09:38:56.379Z,787.50
2018-06-09T09:39:56.566Z,686.25
2018-06-09T09:40:56.754Z,675.00
2018-06-09T09:41:56.952Z,669.38
2018-06-09T09:42:57.142Z,663.75
2018-06-09T09:43:57.332Z,652.50
2018-06-09T09:44:57.528Z,652.50
2018-06-09T09:45:57.720Z,641.25
2018-06-09T09:46:57.906Z,635.63
2018-06-09T09:47:58.096Z,630.00
2018-06-09T09:48:58.291Z,624.38
2018-06-09T09:49:58.490Z,618.75
2018-06-09T09:50:58.675Z,613.13
2018-06-09T09:51:58.871Z,607.50
2018-06-09T09:52:59.068Z,601.88
2018-06-09T09:53:59.250Z,596.25
2018-06-09T09:54:59.492Z,596.25
2018-06-09T09:55:59.632Z,590.63
2018-06-09T09:56:59.830Z,585.00
2018-06-09T09:58:00.016Z,579.38
2018-06-09T09:59:00.200Z,573.75
2018-06-09T10:00:00.388Z,562.50
2018-06-09T10:01:00.588Z,540.00
2018-06-09T10:02:00.769Z,528.75
2018-06-09T10:03:00.968Z,534.38
2018-06-09T10:04:01.154Z,528.75
2018-06-09T10:05:01.350Z,534.38
2018-06-09T10:06:01.537Z,528.75
2018-06-09T10:07:01.743Z,528.75
2018-06-09T10:08:01.931Z,523.13
2018-06-09T10:09:02.104Z,517.50
2018-06-09T10:10:02.294Z,517.50
2018-06-09T10:11:02.502Z,517.50
2018-06-09T10:12:02.682Z,511.88
2018-06-09T10:13:02.878Z,511.88
2018-06-09T10:14:03.075Z,506.25
2018-06-09T10:15:03.271Z,506.25
2018-06-09T10:16:03.451Z,506.25
2018-06-09T10:17:03.641Z,500.63
2018-06-09T10:18:03.830Z,500.63
2018-06-09T10:19:04.020Z,495.00
2018-06-09T10:20:04.214Z,495.00
2018-06-09T10:21:04.403Z,489.38
2018-06-09T10:22:04.589Z,483.75
2018-06-09T10:23:04.783Z,483.75
2018-06-09T10:24:05.021Z,478.13
2018-06-09T10:25:05.205Z,478.13
2018-06-09T10:26:05.393Z,478.13
2018-06-09T10:27:05.591Z,478.13
2018-06-09T10:28:05.777Z,478.13
2018-06-09T10:29:05.968Z,478.13
2018-06-09T10:30:06.161Z,478.13
2018-06-09T10:31:06.354Z,472.50
2018-06-09T10:32:06.543Z,472.50
2018-06-09T10:33:06.739Z,466.88
2018-06-09T10:34:06.923Z,466.88
2018-06-09T10:35:07.119Z,461.25
2018-06-09T10:36:07.298Z,472.50
2018-06-09T10:37:07.538Z,472.50
2018-06-09T10:38:07.685Z,472.50
2018-06-09T10:39:07.871Z,478.13
2018-06-09T10:40:08.075Z,478.13
2018-06-09T10:41:08.262Z,472.50
2018-06-09T10:42:08.454Z,478.13
2018-06-09T10:43:08.651Z,478.13
2018-06-09T10:44:08.845Z,483.75
2018-06-09T10:45:09.028Z,489.38
2018-06-09T10:46:09.316Z,489.38
2018-06-09T10:47:09.505Z,489.38
2018-06-09T10:48:09.765Z,489.38
2018-06-09T10:49:09.844Z,489.38
2018-06-09T10:50:10.042Z,495.00
2018-06-09T10:51:10.225Z,500.63
2018-06-09T10:52:10.434Z,511.88
2018-06-09T10:53:10.584Z,511.88
2018-06-09T10:54:10.842Z,506.25
2018-06-09T10:55:10.897Z,506.25
2018-06-09T10:56:11.100Z,506.25
2018-06-09T10:57:11.264Z,511.88
2018-06-09T10:58:11.455Z,511.88
2018-06-09T10:59:11.667Z,517.50
2018-06-09T11:00:11.851Z,523.13
2018-06-09T11:01:12.026Z,523.13
2018-06-09T11:02:12.251Z,528.75
2018-06-09T11:03:12.469Z,528.75
2018-06-09T11:04:12.695Z,534.38
2018-06-09T11:05:12.885Z,534.38
2018-06-09T11:06:13.064Z,523.13
2018-06-09T11:07:13.284Z,517.50
2018-06-09T11:08:13.444Z,506.25
2018-06-09T11:09:13.641Z,495.00
2018-06-09T11:10:13.826Z,483.75
2018-06-09T11:11:14.026Z,483.75
2018-06-09T11:12:14.199Z,478.13
2018-06-09T11:13:14.377Z,489.38
2018-06-09T11:14:14.575Z,472.50
2018-06-09T11:15:14.755Z,461.25
2018-06-09T11:16:14.941Z,466.88
2018-06-09T11:17:15.136Z,472.50
2018-06-09T11:18:15.372Z,472.50
2018-06-09T11:19:15.522Z,472.50
2018-06-09T11:20:15.707Z,472.50
2018-06-09T11:21:15.899Z,472.50
2018-06-09T11:22:16.086Z,472.50
2018-06-09T11:23:16.296Z,472.50
2018-06-09T11:24:16.467Z,466.88
2018-06-09T11:25:16.663Z,461.25
2018-06-09T11:26:16.853Z,461.25
2018-06-09T11:27:19.106Z,461.25
2018-06-09T11:28:20.494Z,472.50
2018-06-09T11:29:17.379Z,472.50
2018-06-09T11:30:17.570Z,478.13
2018-06-09T11:31:17.748Z,483.75
2018-06-09T11:32:17.943Z,478.13
2018-06-09T11:33:18.166Z,472.50
2018-06-09T11:34:18.338Z,466.88
2018-06-09T11:35:18.885Z,461.25
2018-06-09T11:36:18.764Z,461.25
2018-06-09T11:37:18.949Z,461.25
2018-06-09T11:38:19.187Z,461.25
2018-06-09T11:39:19.406Z,466.88
2018-06-09T11:40:19.687Z,466.88
2018-06-09T11:41:19.805Z,466.88
2018-06-09T11:42:20.076Z,466.88
2018-06-09T11:43:20.154Z,478.13
2018-06-09T11:44:20.362Z,478.13
2018-06-09T11:45:20.670Z,472.50
2018-06-09T11:46:20.798Z,478.13
2018-06-09T11:47:20.894Z,483.75
2018-06-09T11:48:21.089Z,483.75
2018-06-09T11:49:21.254Z,483.75
2018-06-09T11:50:21.442Z,483.75
2018-06-09T11:51:21.630Z,489.38
2018-06-09T11:52:21.798Z,495.00
2018-06-09T11:53:21.979Z,489.38
2018-06-09T11:54:22.151Z,483.75
2018-06-09T11:55:22.370Z,483.75
2018-06-09T11:56:22.572Z,483.75
2018-06-09T11:57:22.737Z,478.13
2018-06-09T11:58:22.929Z,478.13
2018-06-09T11:59:23.127Z,483.75
2018-06-09T12:00:23.313Z,472.50
2018-06-09T12:01:23.489Z,472.50
2018-06-09T12:02:23.669Z,478.13
2018-06-09T12:03:23.857Z,483.75
2018-06-09T12:04:24.046Z,483.75
2018-06-09T12:05:24.241Z,444.38
2018-06-09T12:06:24.425Z,450.00
2018-06-09T12:07:24.598Z,354.38
2018-06-09T12:08:24.802Z,348.75
2018-06-09T12:09:24.976Z,343.13
2018-06-09T12:10:25.426Z,337.50
2018-06-09T12:11:25.495Z,337.50
2018-06-09T12:12:25.570Z,331.88
2018-06-09T12:13:25.756Z,343.13
2018-06-09T12:14:25.955Z,360.00
2018-06-09T12:15:26.123Z,450.00
2018-06-09T12:16:26.312Z,455.63
2018-06-09T12:17:26.492Z,450.00
2018-06-09T12:18:26.667Z,450.00
2018-06-09T12:19:26.839Z,444.38
2018-06-09T12:20:27.026Z,438.75
2018-06-09T12:21:27.192Z,433.13
2018-06-09T12:22:27.389Z,427.50
2018-06-09T12:23:27.564Z,427.50
2018-06-09T12:24:27.754Z,416.25
2018-06-09T12:25:27.912Z,410.63
2018-06-09T12:26:28.121Z,416.25
2018-06-09T12:27:28.285Z,410.63
2018-06-09T12:28:28.449Z,405.00
2018-06-09T12:29:28.645Z,393.75
2018-06-09T12:30:28.813Z,393.75
2018-06-09T12:31:28.990Z,388.13
2018-06-09T12:32:29.233Z,388.13
2018-06-09T12:33:29.360Z,343.13
2018-06-09T12:34:29.539Z,348.75
2018-06-09T12:35:29.731Z,303.75
2018-06-09T12:36:29.910Z,258.75
2018-06-09T12:37:30.100Z,264.38
2018-06-09T12:38:30.287Z,343.13
2018-06-09T12:39:30.469Z,264.38
2018-06-09T12:40:30.635Z,264.38
2018-06-09T12:41:30.833Z,270.00